Marco Polo — C6JZ7 — position and weather

sailwx.info

Track history (hours):
 
Tides and Currents Weather Stations Pressure Air Temp Water Temp Dewpoint Dewpoint Depression Visibility Wind Speed Wind Dir Waves Ship Positions

Marco Polo

Operator: Orient Lines

Last reported at 2016-Aug-23 15:24 UTC. Time now 2016-Aug-24 06:48 UTC.
Position N 63°06' E 007°45'.

Type: Ship. MMSI: 308691456.

Date/timePositionNaut miles runAvg speedWind from/ knotsBaromVisibWave heightAir tempDewpointWater temp
2016-Aug-23 15:24N 63°06' E 007°45'0 0.4
2016-Aug-23 14:27N 63°07' E 007°44'0 0.0
2016-Aug-23 13:27N 63°07' E 007°44'0 0.0
2016-Aug-23 12:15N 63°07' E 007°44'0 0.0
2016-Aug-23 11:33N 63°07' E 007°44'0 0.0
2016-Aug-23 10:30N 63°07' E 007°44'0 0.0
2016-Aug-23 09:33N 63°07' E 007°44'0 0.0
2016-Aug-23 08:33N 63°07' E 007°44'0 0.0
2016-Aug-23 07:32N 63°07' E 007°44'0 0.0
2016-Aug-23 06:32N 63°07' E 007°44'0 0.0
2016-Aug-23 04:33N 63°07' E 007°44'  
2016-Aug-20 19:33N 59°49' E 005°34'15 0.9
2016-Aug-20 03:08N 59°60' E 005°53'915.0
2016-Aug-20 02:33N 59°53' E 005°43'3310.0
2016-Aug-19 23:14N 60°07' E 004°43'1015.1
2016-Aug-19 22:33N 60°07' E 004°22'243 9.3
2016-Aug-18 20:34N 59°15' W 003°28'1313.0
2016-Aug-18 19:33N 59°07' W 003°48'1313.0
2016-Aug-18 18:33N 58°60' W 004°09'1313.4
2016-Aug-18 17:33N 58°52' W 004°30'20012.5
2016-Aug-18 01:33N 55°47' W 006°54'1616.4
2016-Aug-18 00:33N 55°34' W 006°38'1616.4
2016-Aug-17 23:33N 55°26' W 006°12'1514.7
2016-Aug-17 22:33N 55°16' W 005°52'1413.6
2016-Aug-17 21:33N 55°15' W 005°29'1714.5
2016-Aug-17 20:23N 55°23' W 005°03'1215.0
2016-Aug-17 19:33N 55°36' W 005°01'1414.1
2016-Aug-17 18:33N 55°50' W 004°57'1010.2
2016-Aug-17 17:33N 55°58' W 004°46'0 0.4
2016-Aug-17 16:33N 55°57' W 004°46'0 0.0
2016-Aug-17 15:33N 55°57' W 004°46'0 0.0
2016-Aug-17 14:33N 55°57' W 004°46'0 0.0
2016-Aug-17 13:31N 55°57' W 004°46'0 0.0
2016-Aug-17 12:33N 55°57' W 004°46'0 0.0
2016-Aug-17 11:32N 55°57' W 004°46'0 0.0
2016-Aug-17 10:33N 55°57' W 004°46'0 0.0
2016-Aug-17 09:15N 55°57' W 004°46'  
2016-Aug-14 22:29N 58°42' W 004°37'1212.9
2016-Aug-14 21:33N 58°42' W 004°14'1414.1
2016-Aug-14 20:33N 58°43' W 003°47'1414.3
2016-Aug-14 19:33N 58°43' W 003°19'1211.6
2016-Aug-14 18:34N 58°43' W 002°57'1212.3
2016-Aug-14 17:34N 58°52' W 002°40'1110.5
2016-Aug-14 16:33N 59°01' W 002°51'4 3.8
2016-Aug-14 15:31N 59°00' W 002°58'0 0.0
2016-Aug-14 14:31N 59°00' W 002°58'0 0.0
2016-Aug-14 13:31N 59°00' W 002°58'0 0.0
2016-Aug-14 12:31N 59°00' W 002°58'0 0.0
2016-Aug-14 11:31N 59°00' W 002°58'0 0.0
2016-Aug-14 10:31N 59°00' W 002°58'0 0.0
2016-Aug-14 09:31N 59°00' W 002°58'0 0.0
2016-Aug-14 08:31N 59°00' W 002°58'0 0.0
2016-Aug-14 07:31N 59°00' W 002°58'0 0.1
2016-Aug-14 06:33N 59°00' W 002°58'  
Track history (hours):
 
Tides and Currents Weather Stations Pressure Air Temp Water Temp Dewpoint Dewpoint Depression Visibility Wind Speed Wind Dir Waves Ship Positions

Marco Polo

Operator: Orient Lines

Last reported at 2016-Aug-23 15:24 UTC. Time now 2016-Aug-24 06:48 UTC.
Position N 63°06' E 007°45'.

Type: Ship. MMSI: 308691456.

Date/timePositionNaut miles runAvg speedWind from/ knotsBaromVisibWave heightAir tempDewpointWater temp
2016-Aug-23 15:24N 63°06' E 007°45'0 0.4
2016-Aug-23 14:27N 63°07' E 007°44'0 0.0
2016-Aug-23 13:27N 63°07' E 007°44'0 0.0
2016-Aug-23 12:15N 63°07' E 007°44'0 0.0
2016-Aug-23 11:33N 63°07' E 007°44'0 0.0
2016-Aug-23 10:30N 63°07' E 007°44'0 0.0
2016-Aug-23 09:33N 63°07' E 007°44'0 0.0
2016-Aug-23 08:33N 63°07' E 007°44'0 0.0
2016-Aug-23 07:32N 63°07' E 007°44'0 0.0
2016-Aug-23 06:32N 63°07' E 007°44'0 0.0
2016-Aug-23 04:33N 63°07' E 007°44'  
2016-Aug-20 19:33N 59°49' E 005°34'15 0.9
2016-Aug-20 03:08N 59°60' E 005°53'915.0
2016-Aug-20 02:33N 59°53' E 005°43'3310.0
2016-Aug-19 23:14N 60°07' E 004°43'1015.1
2016-Aug-19 22:33N 60°07' E 004°22'243 9.3
2016-Aug-18 20:34N 59°15' W 003°28'1313.0
2016-Aug-18 19:33N 59°07' W 003°48'1313.0
2016-Aug-18 18:33N 58°60' W 004°09'1313.4
2016-Aug-18 17:33N 58°52' W 004°30'20012.5
2016-Aug-18 01:33N 55°47' W 006°54'1616.4
2016-Aug-18 00:33N 55°34' W 006°38'1616.4
2016-Aug-17 23:33N 55°26' W 006°12'1514.7
2016-Aug-17 22:33N 55°16' W 005°52'1413.6
2016-Aug-17 21:33N 55°15' W 005°29'1714.5
2016-Aug-17 20:23N 55°23' W 005°03'1215.0
2016-Aug-17 19:33N 55°36' W 005°01'1414.1
2016-Aug-17 18:33N 55°50' W 004°57'1010.2
2016-Aug-17 17:33N 55°58' W 004°46'0 0.4
2016-Aug-17 16:33N 55°57' W 004°46'0 0.0
2016-Aug-17 15:33N 55°57' W 004°46'0 0.0
2016-Aug-17 14:33N 55°57' W 004°46'0 0.0
2016-Aug-17 13:31N 55°57' W 004°46'0 0.0
2016-Aug-17 12:33N 55°57' W 004°46'0 0.0
2016-Aug-17 11:32N 55°57' W 004°46'0 0.0
2016-Aug-17 10:33N 55°57' W 004°46'0 0.0
2016-Aug-17 09:15N 55°57' W 004°46'  
2016-Aug-14 22:29N 58°42' W 004°37'1212.9
2016-Aug-14 21:33N 58°42' W 004°14'1414.1
2016-Aug-14 20:33N 58°43' W 003°47'1414.3
2016-Aug-14 19:33N 58°43' W 003°19'1211.6
2016-Aug-14 18:34N 58°43' W 002°57'1212.3
2016-Aug-14 17:34N 58°52' W 002°40'1110.5
2016-Aug-14 16:33N 59°01' W 002°51'4 3.8
2016-Aug-14 15:31N 59°00' W 002°58'0 0.0
2016-Aug-14 14:31N 59°00' W 002°58'0 0.0
2016-Aug-14 13:31N 59°00' W 002°58'0 0.0
2016-Aug-14 12:31N 59°00' W 002°58'0 0.0
2016-Aug-14 11:31N 59°00' W 002°58'0 0.0
2016-Aug-14 10:31N 59°00' W 002°58'0 0.0
2016-Aug-14 09:31N 59°00' W 002°58'0 0.0
2016-Aug-14 08:31N 59°00' W 002°58'0 0.0
2016-Aug-14 07:31N 59°00' W 002°58'0 0.1
2016-Aug-14 06:33N 59°00' W 002°58'  

Dump ship's entire track history